메인 페이지
METAR-TAF:

METAR-TAF

공항 :

브루나이 국제공항

브루나이, 브루나이

위도: 04-56N, 경도: 114-56E, 고도: 22m

현재 날씨관측

예보는 35분 전, 15:00시(UTC)에 발표되었습니다.
5kt
온도 26°C
습도 100%
기압 1009 hPa
시정 10km 이상
고도 500ft 상공 구름 조금
고도 1500ft 상공 구름 조금, 적란운.
고도 15000ft 상공 구름 많음
뇌우, 약한비

METAR: WBSB 241500Z 19005KT 9999 -TSRA FEW005 FEW015CB BKN150 26/26 Q1009 TEMPO -TSRA

시각: 23:35 (15:35 UTC)

예보

예보는 4 시간 35분 전, 11:00시(UTC)에 발표되었습니다.
예보 대상 시간: 24일 12시부터 25일 18시까지 (UTC)
8kt
시정 10km 이상
고도 1500ft 상공 구름 보통
고도 1600ft 상공 구름 조금, 적란운.
일시적
24일 12시부터 24일 16시까지 (UTC)
시정: 6000m
소나기, 뇌우, 비
전환 중
24일 18시부터 24일 20시까지 (UTC)
남남서3kt
고도 1400ft 상공 구름 보통
고도 1500ft 상공 구름 조금, 적란운.

TAF: WBSB 241100Z 2412/2518 26008KT 9999 SCT015 FEW016CB TEMPO 2412/2416 6000 SHRA TSRA BECMG 2418/2420 20003KT SCT014 FEW015CB

4,000개 이상의 공항 관측 자료 및 예보 (METAR 및 TAF 보고).

지도상에서 검색 가능한 기상관측소가 노란 점과 빨간 점으로 표시되어 있습니다.

기상관측소 명을 보려면 표시 위로 마우스를 이동하세요.

날씨 관측과 예보를 보려면 클릭하세요.

지도 변경 : 확대하려면 엑스 표시가 있는 녹색 버튼, 축소하려면 빼기 표시가 있는 녹색 버튼, 다음 페이지의 지도를 보려면 녹색 화살표를 클릭하세요.


METAR-TAF: